createdAt,value
2023-11-04T00:01:07.724Z,31.30
2023-11-04T00:03:43.354Z,29.20
2023-11-04T00:06:11.074Z,26.00
2023-11-04T00:08:41.147Z,28.20
2023-11-04T00:11:08.867Z,25.30
2023-11-04T00:13:37.491Z,28.20
2023-11-04T00:16:10.457Z,25.80
2023-11-04T00:18:38.887Z,30.30
2023-11-04T00:21:08.872Z,30.40
2023-11-04T00:23:36.832Z,26.30
2023-11-04T00:26:05.152Z,27.80
2023-11-04T00:28:33.019Z,33.60
2023-11-04T00:31:00.890Z,33.80
2023-11-04T00:33:28.781Z,32.50
2023-11-04T00:35:56.692Z,25.40
2023-11-04T00:38:24.276Z,33.70
2023-11-04T00:40:52.438Z,32.70
2023-11-04T00:43:20.524Z,32.20
2023-11-04T00:45:48.224Z,36.50
2023-11-04T00:48:15.984Z,35.00
2023-11-04T00:50:43.641Z,31.30
2023-11-04T00:53:11.246Z,31.90
2023-11-04T00:55:39.151Z,32.90
2023-11-04T00:58:06.801Z,34.00
2023-11-04T01:00:34.422Z,34.40
2023-11-04T01:03:02.261Z,27.40
2023-11-04T01:05:30.614Z,34.80
2023-11-04T01:07:59.175Z,32.80
2023-11-04T01:10:26.865Z,43.50
2023-11-04T01:12:55.154Z,37.70
2023-11-04T01:15:23.007Z,34.10
2023-11-04T01:17:50.716Z,34.80
2023-11-04T01:20:18.900Z,34.10
2023-11-04T01:22:47.028Z,27.20
2023-11-04T01:25:14.709Z,34.70
2023-11-04T01:27:42.649Z,28.90
2023-11-04T01:30:11.543Z,26.50
2023-11-04T01:32:39.397Z,36.30
2023-11-04T01:35:09.072Z,29.50
2023-11-04T01:37:36.717Z,32.90
2023-11-04T01:40:10.073Z,40.40
2023-11-04T01:42:43.466Z,34.60
2023-11-04T01:45:11.577Z,32.20
2023-11-04T01:47:40.918Z,27.30
2023-11-04T01:50:09.706Z,29.50
2023-11-04T01:52:42.230Z,37.90
2023-11-04T01:55:11.420Z,32.80
2023-11-04T01:57:39.456Z,35.30
2023-11-04T02:00:10.535Z,39.00
2023-11-04T02:02:42.882Z,37.50
2023-11-04T02:05:11.931Z,34.60
2023-11-04T02:07:39.754Z,30.90
2023-11-04T02:10:08.007Z,33.10
2023-11-04T02:12:35.611Z,32.90
2023-11-04T02:15:03.472Z,36.20
2023-11-04T02:17:31.169Z,42.00
2023-11-04T02:20:02.949Z,35.90
2023-11-04T02:22:30.610Z,35.70
2023-11-04T02:25:00.206Z,35.20
2023-11-04T02:27:27.914Z,50.80
2023-11-04T02:29:55.598Z,42.20
2023-11-04T02:32:23.459Z,45.30
2023-11-04T02:34:51.038Z,39.50
2023-11-04T02:37:18.641Z,46.90
2023-11-04T02:39:46.261Z,43.10
2023-11-04T02:42:13.857Z,44.80
2023-11-04T02:44:41.438Z,37.10
2023-11-04T02:47:09.021Z,46.80
2023-11-04T02:49:36.662Z,39.50
2023-11-04T02:52:09.240Z,40.20
2023-11-04T02:54:38.639Z,40.40
2023-11-04T02:57:06.298Z,40.50
2023-11-04T02:59:33.868Z,47.00
2023-11-04T03:02:02.331Z,42.00
2023-11-04T03:04:30.151Z,53.20
2023-11-04T03:06:57.962Z,44.00
2023-11-04T03:09:25.595Z,49.70
2023-11-04T03:11:55.507Z,46.70
2023-11-04T03:14:23.210Z,44.50
2023-11-04T03:16:53.098Z,49.40
2023-11-04T03:19:21.095Z,48.90
2023-11-04T03:21:48.814Z,47.40
2023-11-04T03:24:16.772Z,50.90
2023-11-04T03:26:44.355Z,46.20
2023-11-04T03:29:12.055Z,48.80
2023-11-04T03:31:39.689Z,45.20
2023-11-04T03:34:07.474Z,47.30
2023-11-04T03:36:35.358Z,59.70
2023-11-04T03:39:03.044Z,48.70
2023-11-04T03:41:30.773Z,45.30
2023-11-04T03:43:59.287Z,40.50
2023-11-04T03:46:26.882Z,47.50
2023-11-04T03:48:55.164Z,45.70
2023-11-04T03:51:22.876Z,61.60
2023-11-04T03:53:56.018Z,44.10
2023-11-04T03:56:24.415Z,47.90
2023-11-04T03:58:52.083Z,48.00
2023-11-04T04:01:19.644Z,49.00
2023-11-04T04:03:48.095Z,58.40
2023-11-04T04:06:18.187Z,49.20
2023-11-04T04:08:46.234Z,50.10
2023-11-04T04:11:14.176Z,50.50
2023-11-04T04:13:41.812Z,55.80
2023-11-04T04:16:12.602Z,49.00
2023-11-04T04:18:40.457Z,48.60
2023-11-04T04:21:08.191Z,46.80
2023-11-04T04:23:35.823Z,51.60
2023-11-04T04:26:03.683Z,47.10
2023-11-04T04:28:31.527Z,51.30
2023-11-04T04:30:59.207Z,46.40
2023-11-04T04:33:27.010Z,51.00
2023-11-04T04:35:54.691Z,42.00
2023-11-04T04:38:22.462Z,42.60
2023-11-04T04:40:50.084Z,49.60
2023-11-04T04:43:17.736Z,48.10
2023-11-04T04:45:45.341Z,51.90
2023-11-04T04:48:13.039Z,46.10
2023-11-04T04:50:43.218Z,42.40
2023-11-04T04:53:10.856Z,44.10
2023-11-04T04:55:38.543Z,50.20
2023-11-04T04:58:06.095Z,50.90
2023-11-04T05:00:33.688Z,53.30
2023-11-04T05:03:01.487Z,49.70
2023-11-04T05:05:29.336Z,49.90
2023-11-04T05:07:57.005Z,47.80
2023-11-04T05:10:24.654Z,47.90
2023-11-04T05:12:52.298Z,51.10
2023-11-04T05:15:20.223Z,50.70
2023-11-04T05:17:47.949Z,65.50
2023-11-04T05:20:15.898Z,45.10
2023-11-04T05:22:43.585Z,49.30
2023-11-04T05:25:11.277Z,43.60
2023-11-04T05:27:38.993Z,50.80
2023-11-04T05:30:11.809Z,60.20
2023-11-04T05:32:39.587Z,63.60
2023-11-04T05:35:07.913Z,66.40
2023-11-04T05:37:35.595Z,54.60
2023-11-04T05:40:04.827Z,60.90
2023-11-04T05:42:32.492Z,52.20
2023-11-04T05:45:00.159Z,54.70
2023-11-04T05:47:28.141Z,55.40
2023-11-04T05:49:55.759Z,47.10
2023-11-04T05:52:23.338Z,48.40
2023-11-04T05:54:51.012Z,52.30
2023-11-04T05:57:18.643Z,49.50
2023-11-04T05:59:46.781Z,48.30
2023-11-04T06:02:14.446Z,49.20
2023-11-04T06:04:42.227Z,45.90
2023-11-04T06:07:09.986Z,49.10
2023-11-04T06:09:38.272Z,47.90
2023-11-04T06:12:07.085Z,60.00
2023-11-04T06:14:34.881Z,47.70
2023-11-04T06:17:04.949Z,45.40
2023-11-04T06:19:33.101Z,49.40
2023-11-04T06:22:01.590Z,41.40
2023-11-04T06:24:29.280Z,48.60
2023-11-04T06:26:57.963Z,53.50
2023-11-04T06:29:26.258Z,49.60
2023-11-04T06:31:53.883Z,48.90
2023-11-04T06:34:21.646Z,56.20
2023-11-04T06:36:49.291Z,40.00
2023-11-04T06:39:17.546Z,47.40
2023-11-04T06:41:45.476Z,48.10
2023-11-04T06:44:13.166Z,44.00
2023-11-04T06:46:47.628Z,44.90
2023-11-04T06:49:16.028Z,49.60
2023-11-04T06:51:43.717Z,44.70
2023-11-04T06:54:11.378Z,47.80
2023-11-04T06:56:39.680Z,36.70
2023-11-04T06:59:07.467Z,51.50
2023-11-04T07:01:35.070Z,44.20
2023-11-04T07:04:03.183Z,56.20
2023-11-04T07:06:30.881Z,41.00
2023-11-04T07:08:58.595Z,44.60
2023-11-04T07:11:26.265Z,44.00
2023-11-04T07:13:55.693Z,36.40
2023-11-04T07:16:23.381Z,37.10
2023-11-04T07:18:51.148Z,34.60
2023-11-04T07:21:20.556Z,34.30
2023-11-04T07:23:48.126Z,34.10
2023-11-04T07:26:15.709Z,33.70
2023-11-04T07:28:45.684Z,27.30
2023-11-04T07:31:16.430Z,30.00
2023-11-04T07:33:44.098Z,24.10
2023-11-04T07:36:11.794Z,33.50
2023-11-04T07:38:39.733Z,34.10
2023-11-04T07:41:08.792Z,28.10
2023-11-04T07:43:36.447Z,30.40
2023-11-04T07:46:04.396Z,34.20
2023-11-04T07:48:32.852Z,29.50
2023-11-04T07:51:00.599Z,30.70
2023-11-04T07:53:29.024Z,30.50
2023-11-04T07:55:56.791Z,34.10
2023-11-04T07:58:25.534Z,35.20
2023-11-04T08:00:55.066Z,41.20
2023-11-04T08:03:24.411Z,36.00
2023-11-04T08:05:53.442Z,36.70
2023-11-04T08:08:21.824Z,36.40
2023-11-04T08:10:49.650Z,39.20
2023-11-04T08:13:17.461Z,34.90
2023-11-04T08:15:45.096Z,41.20
2023-11-04T08:18:12.820Z,37.70
2023-11-04T08:20:40.466Z,37.20
2023-11-04T08:23:08.181Z,34.00
2023-11-04T08:25:35.831Z,31.30
2023-11-04T08:28:03.455Z,35.20
2023-11-04T08:30:31.479Z,39.70
2023-11-04T08:32:59.338Z,41.00
2023-11-04T08:35:27.002Z,30.80
2023-11-04T08:37:54.988Z,24.50
2023-11-04T08:40:22.641Z,31.60
2023-11-04T08:42:50.223Z,36.70
2023-11-04T08:45:19.741Z,30.60
2023-11-04T08:47:47.663Z,29.00
2023-11-04T08:50:16.003Z,25.30
2023-11-04T08:52:43.903Z,23.70
2023-11-04T08:55:11.860Z,26.30
2023-11-04T08:57:39.734Z,30.40
2023-11-04T09:00:10.001Z,26.80
2023-11-04T09:02:38.200Z,21.70
2023-11-04T09:05:13.386Z,20.10
2023-11-04T09:07:45.651Z,28.40
2023-11-04T09:10:13.470Z,29.80
2023-11-04T09:12:41.180Z,35.90
2023-11-04T09:15:11.810Z,25.20
2023-11-04T09:17:39.874Z,25.60
2023-11-04T09:20:08.782Z,25.00
2023-11-04T09:22:37.828Z,29.80
2023-11-04T09:25:12.033Z,31.40
2023-11-04T09:27:40.051Z,25.70
2023-11-04T09:30:08.691Z,23.40
2023-11-04T09:32:39.319Z,25.30
2023-11-04T09:35:07.868Z,29.20
2023-11-04T09:37:36.908Z,21.30
2023-11-04T09:40:05.017Z,19.90
2023-11-04T09:42:33.441Z,20.30
2023-11-04T09:45:02.939Z,23.10
2023-11-04T09:47:31.612Z,26.50
2023-11-04T09:50:00.960Z,21.10
2023-11-04T09:52:29.625Z,24.70
2023-11-04T09:55:01.313Z,18.60
2023-11-04T09:57:30.129Z,23.60
2023-11-04T09:59:58.794Z,25.10
2023-11-04T10:02:26.437Z,20.40
2023-11-04T10:04:54.560Z,21.60
2023-11-04T10:07:24.710Z,21.20
2023-11-04T10:09:53.457Z,17.80
2023-11-04T10:12:22.407Z,14.60
2023-11-04T10:14:50.053Z,18.70
2023-11-04T10:17:19.152Z,18.00
2023-11-04T10:19:48.112Z,23.50
2023-11-04T10:22:15.955Z,14.40
2023-11-04T10:24:43.643Z,29.70
2023-11-04T10:27:11.243Z,28.00
2023-11-04T10:29:38.885Z,17.30
2023-11-04T10:32:11.655Z,14.60
2023-11-04T10:34:47.121Z,15.50
2023-11-04T10:37:20.085Z,14.90
2023-11-04T10:39:50.246Z,15.60
2023-11-04T10:42:21.748Z,17.20
2023-11-04T10:44:58.295Z,18.90
2023-11-04T10:47:50.633Z,18.70
2023-11-04T10:50:26.573Z,17.20
2023-11-04T10:53:11.601Z,19.30
2023-11-04T10:56:24.182Z,18.90
2023-11-04T10:59:11.589Z,14.80
2023-11-04T11:01:43.492Z,20.60
2023-11-04T11:04:12.997Z,16.80
2023-11-04T11:06:41.492Z,15.70
2023-11-04T11:09:10.574Z,13.80
2023-11-04T11:11:49.770Z,12.20
2023-11-04T11:14:18.678Z,20.40
2023-11-04T11:16:46.518Z,20.00
2023-11-04T11:19:14.346Z,13.60
2023-11-04T11:21:51.258Z,12.90
2023-11-04T11:24:22.129Z,11.80
2023-11-04T11:26:58.500Z,15.30
2023-11-04T11:29:27.309Z,14.00
2023-11-04T11:32:06.553Z,10.60
2023-11-04T11:34:34.678Z,10.80
2023-11-04T11:37:04.514Z,8.90
2023-11-04T11:39:32.151Z,12.00
2023-11-04T11:42:01.149Z,6.80
2023-11-04T11:44:28.813Z,9.50
2023-11-04T11:46:56.485Z,9.80
2023-11-04T11:49:24.186Z,10.60
2023-11-04T11:51:51.898Z,10.30
2023-11-04T11:54:19.636Z,5.00
2023-11-04T11:56:47.249Z,10.50
2023-11-04T11:59:14.982Z,13.30
2023-11-04T12:01:42.607Z,10.80
2023-11-04T12:04:10.571Z,6.70
2023-11-04T12:06:40.626Z,6.10
2023-11-04T12:09:12.396Z,11.60
2023-11-04T12:11:40.165Z,14.70
2023-11-04T12:14:08.650Z,5.30
2023-11-04T12:16:36.745Z,6.20
2023-11-04T12:19:05.195Z,9.40
2023-11-04T12:21:34.221Z,10.30
2023-11-04T12:24:02.451Z,5.60
2023-11-04T12:26:34.304Z,5.90
2023-11-04T12:29:01.913Z,5.40
2023-11-04T12:31:30.331Z,11.30
2023-11-04T12:33:58.061Z,17.30
2023-11-04T12:36:26.083Z,8.70
2023-11-04T12:38:53.936Z,9.30
2023-11-04T12:41:22.181Z,14.90
2023-11-04T12:43:51.431Z,14.40
2023-11-04T12:46:22.394Z,12.90
2023-11-04T12:48:51.002Z,9.00
2023-11-04T12:51:20.100Z,22.00
2023-11-04T12:53:47.759Z,19.30
2023-11-04T12:56:15.434Z,16.20
2023-11-04T12:58:43.119Z,21.40
2023-11-04T13:01:11.430Z,14.70
2023-11-04T13:03:39.536Z,18.20
2023-11-04T13:06:07.935Z,17.80
2023-11-04T13:08:35.721Z,13.80
2023-11-04T13:11:03.742Z,13.70
2023-11-04T13:13:31.420Z,14.50
2023-11-04T13:15:59.154Z,18.10
2023-11-04T13:18:26.861Z,12.80
2023-11-04T13:20:54.749Z,15.50
2023-11-04T13:23:22.438Z,17.90
2023-11-04T13:25:50.339Z,17.40
2023-11-04T13:28:18.137Z,17.10
2023-11-04T13:30:45.871Z,14.20
2023-11-04T13:33:13.776Z,15.20
2023-11-04T13:35:41.962Z,15.20
2023-11-04T13:38:09.834Z,21.80
2023-11-04T13:40:37.994Z,18.30
2023-11-04T13:43:07.013Z,15.40
2023-11-04T13:45:34.708Z,16.60
2023-11-04T13:48:04.265Z,20.50
2023-11-04T13:50:32.042Z,20.90
2023-11-04T13:53:00.319Z,17.60
2023-11-04T13:55:27.959Z,24.80
2023-11-04T13:57:55.762Z,18.40
2023-11-04T14:00:23.541Z,20.20
2023-11-04T14:02:51.762Z,21.30
2023-11-04T14:05:19.854Z,22.90
2023-11-04T14:07:47.640Z,18.20
2023-11-04T14:10:15.954Z,29.10
2023-11-04T14:12:43.657Z,22.10
2023-11-04T14:15:13.800Z,21.20
2023-11-04T14:17:42.270Z,21.30
2023-11-04T14:20:10.295Z,28.00
2023-11-04T14:22:38.335Z,18.80
2023-11-04T14:25:06.121Z,20.80
2023-11-04T14:27:33.765Z,20.70
2023-11-04T14:30:06.076Z,20.30
2023-11-04T14:32:34.632Z,17.00
2023-11-04T14:35:02.415Z,23.70
2023-11-04T14:37:30.243Z,20.70
2023-11-04T14:40:01.173Z,22.90
2023-11-04T14:42:29.544Z,21.00
2023-11-04T14:44:57.524Z,21.50
2023-11-04T14:47:25.293Z,26.80
2023-11-04T14:49:53.089Z,20.20
2023-11-04T14:52:20.775Z,21.70
2023-11-04T14:54:48.821Z,31.40
2023-11-04T14:57:18.272Z,23.40
2023-11-04T14:59:45.922Z,25.40
2023-11-04T15:02:13.611Z,28.40
2023-11-04T15:04:41.941Z,24.00
2023-11-04T15:07:10.910Z,29.10
2023-11-04T15:09:41.148Z,29.80
2023-11-04T15:12:12.979Z,24.80
2023-11-04T15:14:44.488Z,31.80
2023-11-04T15:17:12.078Z,23.70
2023-11-04T15:19:39.720Z,25.00
2023-11-04T15:22:07.588Z,36.10
2023-11-04T15:24:35.257Z,30.70
2023-11-04T15:27:05.601Z,23.30
2023-11-04T15:29:33.261Z,28.40
2023-11-04T15:32:00.881Z,29.40
2023-11-04T15:34:28.623Z,24.40
2023-11-04T15:36:56.974Z,26.50
2023-11-04T15:39:24.621Z,28.20
2023-11-04T15:41:52.257Z,27.20
2023-11-04T15:44:20.025Z,30.90
2023-11-04T15:46:47.653Z,26.20
2023-11-04T15:49:15.294Z,32.40
2023-11-04T15:51:43.143Z,28.70
2023-11-04T15:54:10.921Z,28.00
2023-11-04T15:56:38.520Z,26.40
2023-11-04T15:59:06.221Z,27.80
2023-11-04T16:01:36.010Z,30.00
2023-11-04T16:04:04.560Z,23.70
2023-11-04T16:06:32.509Z,27.70
2023-11-04T16:09:00.240Z,25.40
2023-11-04T16:11:28.008Z,32.20
2023-11-04T16:13:55.668Z,28.20
2023-11-04T16:16:23.401Z,31.60
2023-11-04T16:18:51.189Z,36.10
2023-11-04T16:21:18.998Z,34.00
2023-11-04T16:23:47.234Z,27.40
2023-11-04T16:26:14.896Z,27.10
2023-11-04T16:28:42.510Z,26.10
2023-11-04T16:31:10.893Z,42.00
2023-11-04T16:33:38.692Z,33.60
2023-11-04T16:36:06.803Z,28.50
2023-11-04T16:38:34.466Z,25.50
2023-11-04T16:41:02.150Z,25.40
2023-11-04T16:43:29.810Z,26.40
2023-11-04T16:45:57.436Z,28.50
2023-11-04T16:48:25.229Z,26.70
2023-11-04T16:50:52.901Z,32.80
2023-11-04T16:53:20.567Z,29.80
2023-11-04T16:55:48.236Z,34.80
2023-11-04T16:58:15.900Z,32.40
2023-11-04T17:00:43.796Z,26.00
2023-11-04T17:03:11.587Z,25.40
2023-11-04T17:05:39.234Z,28.30
2023-11-04T17:08:09.085Z,38.10
2023-11-04T17:10:36.885Z,29.10
2023-11-04T17:13:05.259Z,26.80
2023-11-04T17:15:33.004Z,28.80
2023-11-04T17:18:01.826Z,27.00
2023-11-04T17:20:29.534Z,28.50
2023-11-04T17:22:57.087Z,24.90
2023-11-04T17:25:24.805Z,34.70
2023-11-04T17:27:52.964Z,36.00
2023-11-04T17:30:20.881Z,33.60
2023-11-04T17:32:48.673Z,31.20
2023-11-04T17:35:16.339Z,27.30
2023-11-04T17:37:48.938Z,31.40
2023-11-04T17:42:44.901Z,26.70
2023-11-04T17:45:19.152Z,32.30
2023-11-04T17:47:47.162Z,29.10
2023-11-04T17:50:15.132Z,28.60
2023-11-04T17:52:42.800Z,31.50
2023-11-04T17:55:11.666Z,32.50
2023-11-04T17:57:39.311Z,27.40
2023-11-04T18:00:07.519Z,29.20
2023-11-04T18:02:40.427Z,27.90
2023-11-04T18:05:09.183Z,32.80
2023-11-04T18:07:37.443Z,33.30
2023-11-04T18:10:06.231Z,26.40
2023-11-04T18:12:33.952Z,32.20
2023-11-04T18:15:01.579Z,40.70
2023-11-04T18:17:29.444Z,35.20
2023-11-04T18:19:58.077Z,35.80
2023-11-04T18:22:25.835Z,34.00
2023-11-04T18:24:53.532Z,31.20
2023-11-04T18:27:35.248Z,37.70
2023-11-04T18:30:09.484Z,32.00
2023-11-04T18:32:37.229Z,31.80
2023-11-04T18:35:06.279Z,29.60
2023-11-04T18:37:35.673Z,36.00
2023-11-04T18:40:03.878Z,36.80
2023-11-04T18:42:31.790Z,34.20
2023-11-04T18:44:59.415Z,35.00
2023-11-04T18:47:28.328Z,37.90
2023-11-04T18:49:56.069Z,35.90
2023-11-04T18:52:27.229Z,34.60
2023-11-04T18:54:55.069Z,36.80
2023-11-04T18:57:22.763Z,39.70
2023-11-04T18:59:50.415Z,32.20
2023-11-04T19:02:20.738Z,37.50
2023-11-04T19:04:49.458Z,37.90
2023-11-04T19:07:17.612Z,35.30
2023-11-04T19:09:45.348Z,39.70
2023-11-04T19:12:12.999Z,34.70
2023-11-04T19:14:40.691Z,38.90
2023-11-04T19:17:08.380Z,41.80
2023-11-04T19:19:36.625Z,39.60
2023-11-04T19:22:04.514Z,40.80
2023-11-04T19:24:32.930Z,39.80
2023-11-04T19:27:01.045Z,43.30
2023-11-04T19:29:28.685Z,42.50
2023-11-04T19:31:56.362Z,40.10
2023-11-04T19:34:24.039Z,44.70
2023-11-04T19:36:51.859Z,42.00
2023-11-04T19:39:19.611Z,42.50
2023-11-04T19:41:47.963Z,37.50
2023-11-04T19:44:15.661Z,38.60
2023-11-04T19:46:45.553Z,43.00
2023-11-04T19:49:15.439Z,42.90
2023-11-04T19:51:43.368Z,39.70
2023-11-04T19:54:11.004Z,42.00
2023-11-04T19:56:38.674Z,39.90
2023-11-04T19:59:06.385Z,42.00
2023-11-04T20:01:34.020Z,41.10
2023-11-04T20:04:02.958Z,40.40
2023-11-04T20:06:30.652Z,52.40
2023-11-04T20:08:58.339Z,49.10
2023-11-04T20:11:27.063Z,50.30
2023-11-04T20:13:55.455Z,49.80
2023-11-04T20:16:23.107Z,40.80
2023-11-04T20:18:50.973Z,49.50
2023-11-04T20:21:18.723Z,40.70
2023-11-04T20:23:47.634Z,46.70
2023-11-04T20:26:15.398Z,44.90
2023-11-04T20:28:42.999Z,48.30
2023-11-04T20:31:10.672Z,43.60
2023-11-04T20:33:38.468Z,52.00
2023-11-04T20:36:06.718Z,53.50
2023-11-04T20:38:34.579Z,55.50
2023-11-04T20:41:02.276Z,59.90
2023-11-04T20:43:30.275Z,48.40
2023-11-04T20:45:57.941Z,51.50
2023-11-04T20:48:25.574Z,43.70
2023-11-04T20:50:53.292Z,57.30
2023-11-04T20:53:20.991Z,50.90
2023-11-04T20:55:48.645Z,50.40
2023-11-04T20:58:17.831Z,50.50
2023-11-04T21:00:46.652Z,54.50
2023-11-04T21:03:14.362Z,51.50
2023-11-04T21:05:42.635Z,48.10
2023-11-04T21:08:10.357Z,48.00
2023-11-04T21:10:38.028Z,50.90
2023-11-04T21:13:05.755Z,49.60
2023-11-04T21:15:33.454Z,53.60
2023-11-04T21:18:02.703Z,51.20
2023-11-04T21:20:30.731Z,45.60
2023-11-04T21:22:59.384Z,46.50
2023-11-04T21:25:27.036Z,50.40
2023-11-04T21:27:55.055Z,57.20
2023-11-04T21:30:22.841Z,54.20
2023-11-04T21:32:50.595Z,48.00
2023-11-04T21:35:18.870Z,53.00
2023-11-04T21:37:46.468Z,51.30
2023-11-04T21:40:14.857Z,58.70
2023-11-04T21:42:42.520Z,53.60
2023-11-04T21:45:10.406Z,51.20
2023-11-04T21:47:38.079Z,52.80
2023-11-04T21:50:06.310Z,49.40
2023-11-04T21:52:34.002Z,51.70
2023-11-04T21:55:01.811Z,54.40
2023-11-04T21:57:29.498Z,56.40
2023-11-04T21:59:57.073Z,48.90
2023-11-04T22:02:24.793Z,44.20
2023-11-04T22:04:52.505Z,49.80
2023-11-04T22:07:20.218Z,49.80
2023-11-04T22:09:47.925Z,65.70
2023-11-04T22:12:15.538Z,52.50
2023-11-04T22:14:43.132Z,52.30
2023-11-04T22:17:10.821Z,51.20
2023-11-04T22:19:38.476Z,54.90
2023-11-04T22:22:06.225Z,43.70
2023-11-04T22:24:33.935Z,49.90
2023-11-04T22:27:02.068Z,49.20
2023-11-04T22:29:29.719Z,50.00
2023-11-04T22:31:57.406Z,59.70
2023-11-04T22:34:24.985Z,44.30
2023-11-04T22:36:52.595Z,45.70
2023-11-04T22:39:20.195Z,58.10
2023-11-04T22:41:47.809Z,54.20
2023-11-04T22:44:15.466Z,44.50
2023-11-04T22:46:43.188Z,43.70
2023-11-04T22:49:14.020Z,55.70
2023-11-04T22:51:42.719Z,47.40
2023-11-04T22:54:10.420Z,58.20
2023-11-04T22:56:38.050Z,54.40
2023-11-04T22:59:05.646Z,46.50
2023-11-04T23:01:33.326Z,53.20
2023-11-04T23:04:01.184Z,51.90
2023-11-04T23:06:29.984Z,54.50
2023-11-04T23:08:58.224Z,42.10
2023-11-04T23:11:26.405Z,47.20
2023-11-04T23:13:54.776Z,45.30
2023-11-04T23:16:23.267Z,48.30
2023-11-04T23:18:50.966Z,46.50
2023-11-04T23:21:18.662Z,52.20
2023-11-04T23:23:46.300Z,51.50
2023-11-04T23:26:14.054Z,45.80
2023-11-04T23:28:41.735Z,48.40
2023-11-04T23:31:09.359Z,49.00
2023-11-04T23:33:37.019Z,48.20
2023-11-04T23:36:05.012Z,54.50
2023-11-04T23:38:32.670Z,53.20
2023-11-04T23:41:00.857Z,53.40
2023-11-04T23:43:28.485Z,52.40
2023-11-04T23:45:56.195Z,41.20
2023-11-04T23:48:25.072Z,47.70
2023-11-04T23:50:53.079Z,44.00
2023-11-04T23:53:20.732Z,49.80
2023-11-04T23:55:48.332Z,44.40
2023-11-04T23:58:15.951Z,45.90
